Time;durP1;ratioP1;P1;durP2;ratioP2;P2;SDS_P1;SDS_P2;PMS_P1;PMS_P2;Temp;Humidity;BMP_temperature;BMP_pressure;BME280_temperature;BME280_humidity;BME280_pressure;Samples;Min_cycle;Max_cycle;Signal;HPM_P1;HPM_P2
2023/03/09 00:07:54;;;;;;;0.20;0.10;;;19.20;99.90;;;;;;21068523;28;20926;-69
2023/03/09 00:17:59;;;;;;;0.20;0.10;;;19.50;99.90;;;;;;21049487;28;20408;-69
2023/03/09 00:28:03;;;;;;;0.20;0.10;;;19.40;99.90;;;;;;21059434;27;20520;-70
2023/03/09 00:38:08;;;;;;;0.20;0.00;;;19.50;99.90;;;;;;21112791;27;20887;-69
2023/03/09 00:48:12;;;;;;;0.20;0.10;;;19.40;99.90;;;;;;21064237;28;20721;-69
2023/03/09 00:58:17;;;;;;;0.20;0.10;;;19.50;99.90;;;;;;21123049;28;20402;-68
2023/03/09 01:08:21;;;;;;;0.20;0.00;;;19.40;99.90;;;;;;21140712;28;20460;-69
2023/03/09 01:18:27;;;;;;;0.20;0.10;;;19.20;99.90;;;;;;21141112;28;20438;-69
2023/03/09 01:28:30;;;;;;;0.20;0.00;;;19.20;99.90;;;;;;21104110;28;20398;-70
2023/03/09 01:38:36;;;;;;;0.20;0.08;;;19.10;99.90;;;;;;21113636;28;20911;-68
2023/03/09 01:48:39;;;;;;;0.20;0.10;;;19.10;99.90;;;;;;21111986;28;20456;-69
2023/03/09 01:58:45;;;;;;;0.20;0.00;;;19.10;99.90;;;;;;21147651;28;20440;-69
2023/03/09 02:08:55;;;;;;;0.20;0.03;;;19.00;99.90;;;;;;21148668;28;20394;-69
2023/03/09 02:19:01;;;;;;;0.20;0.00;;;19.00;99.90;;;;;;21146208;28;20398;-69
2023/03/09 02:29:07;;;;;;;0.20;0.00;;;18.80;99.90;;;;;;21130206;28;20786;-69
2023/03/09 02:39:17;;;;;;;0.20;0.00;;;18.70;99.90;;;;;;21061398;28;20465;-68
2023/03/09 02:49:22;;;;;;;0.20;0.03;;;18.40;99.90;;;;;;21102911;28;20448;-69
2023/03/09 02:59:26;;;;;;;0.20;0.00;;;18.10;99.90;;;;;;21144445;28;20940;-69
2023/03/09 03:09:31;;;;;;;0.20;0.03;;;17.80;99.90;;;;;;21144502;28;20474;-69
2023/03/09 03:19:35;;;;;;;0.20;0.00;;;17.30;99.90;;;;;;21145151;28;20410;-69
2023/03/09 03:29:40;;;;;;;0.20;0.10;;;17.00;99.90;;;;;;21128120;28;20906;-69
2023/03/09 03:39:44;;;;;;;0.20;0.10;;;17.20;99.90;;;;;;21074996;28;20930;-68
2023/03/09 03:49:49;;;;;;;0.20;0.10;;;17.00;99.90;;;;;;21074963;28;20401;-68
2023/03/09 03:59:53;;;;;;;0.20;0.10;;;16.90;99.90;;;;;;21073954;28;20424;-68
2023/03/09 04:09:58;;;;;;;0.20;0.07;;;16.40;99.90;;;;;;21072173;28;20441;-68
2023/03/09 04:20:03;;;;;;;0.20;0.03;;;15.90;99.90;;;;;;21072492;28;20760;-70
2023/03/09 04:30:09;;;;;;;0.20;0.10;;;15.70;99.90;;;;;;21071241;28;20426;-68
2023/03/09 04:40:15;;;;;;;0.20;0.10;;;15.70;99.90;;;;;;21070083;28;20478;-67
2023/03/09 04:50:20;;;;;;;0.20;0.10;;;15.90;99.90;;;;;;21095061;28;20401;-67
2023/03/09 05:00:25;;;;;;;0.20;0.00;;;16.20;99.90;;;;;;21142480;28;20976;-67
2023/03/09 05:10:30;;;;;;;0.20;0.10;;;16.20;99.90;;;;;;21152310;27;20890;-67
2023/03/09 05:20:34;;;;;;;0.20;0.00;;;15.40;99.90;;;;;;21149909;28;20410;-67
2023/03/09 05:30:41;;;;;;;0.20;0.10;;;15.20;99.90;;;;;;21120750;28;20409;-69
2023/03/09 05:40:45;;;;;;;0.20;0.08;;;15.20;99.90;;;;;;21063809;28;20409;-68
2023/03/09 05:50:50;;;;;;;0.20;0.10;;;15.10;99.90;;;;;;21062628;28;20446;-69
2023/03/09 06:00:56;;;;;;;0.20;0.10;;;15.10;99.90;;;;;;21061913;28;20828;-70
2023/03/09 06:11:02;;;;;;;0.20;0.10;;;15.20;99.90;;;;;;21061180;28;20408;-69
2023/03/09 06:21:07;;;;;;;0.20;0.00;;;15.10;99.90;;;;;;21061961;28;20439;-69
2023/03/09 06:31:15;;;;;;;0.20;0.10;;;15.10;99.90;;;;;;21061295;28;21250;-69
2023/03/09 06:41:27;;;;;;;0.20;0.00;;;15.20;99.90;;;;;;21058953;28;20496;-70
2023/03/09 06:51:32;;;;;;;0.20;0.10;;;15.30;99.90;;;;;;21040034;28;20392;-70
2023/03/09 07:01:36;;;;;;;0.20;0.10;;;15.40;99.90;;;;;;21057672;28;20494;-71
2023/03/09 07:11:41;;;;;;;0.20;0.10;;;16.00;99.90;;;;;;21053421;28;20477;-70
2023/03/09 07:21:45;;;;;;;0.20;0.10;;;16.50;99.90;;;;;;21074637;28;20567;-69
2023/03/09 07:31:51;;;;;;;0.20;0.10;;;17.00;99.90;;;;;;21055067;28;20425;-73
2023/03/09 07:41:55;;;;;;;0.20;0.10;;;17.40;99.90;;;;;;21070554;28;20392;-69
2023/03/09 07:52:02;;;;;;;0.20;0.00;;;17.40;99.90;;;;;;21069669;28;20473;-69
2023/03/09 08:02:06;;;;;;;0.20;0.10;;;17.50;99.90;;;;;;21066973;28;20428;-68
2023/03/09 08:12:12;;;;;;;0.20;0.10;;;17.30;99.90;;;;;;21067891;28;20400;-67
2023/03/09 08:22:17;;;;;;;0.20;0.10;;;17.10;99.90;;;;;;21067386;28;20431;-68
2023/03/09 08:32:23;;;;;;;0.20;0.10;;;17.60;99.90;;;;;;21051356;28;20475;-69
2023/03/09 08:42:27;;;;;;;0.20;0.10;;;17.70;99.90;;;;;;21150451;28;20413;-68
2023/03/09 08:52:34;;;;;;;0.20;0.10;;;17.80;99.90;;;;;;21149851;28;20402;-69
2023/03/09 09:02:38;;;;;;;0.20;0.00;;;17.20;99.90;;;;;;21150217;28;20497;-70
2023/03/09 09:12:44;;;;;;;0.20;0.10;;;16.50;99.90;;;;;;21148544;28;20501;-70
2023/03/09 09:22:48;;;;;;;0.20;0.10;;;16.40;99.90;;;;;;21148764;28;20438;-69
2023/03/09 09:32:53;;;;;;;0.20;0.10;;;16.40;99.90;;;;;;21097631;28;20400;-69
2023/03/09 09:42:57;;;;;;;0.20;0.10;;;16.20;99.90;;;;;;21062978;28;20863;-68
2023/03/09 09:53:12;;;;;;;0.20;0.10;;;15.70;99.90;;;;;;21060553;28;21228;-69
2023/03/09 10:03:21;;;;;;;0.20;0.10;;;15.70;99.90;;;;;;21058611;28;20411;-69
2023/03/09 10:13:31;;;;;;;0.20;0.10;;;15.60;99.90;;;;;;21058382;28;20450;-69
2023/03/09 10:23:36;;;;;;;0.20;0.03;;;16.10;99.90;;;;;;21058723;28;20457;-68
2023/03/09 10:33:45;;;;;;;0.20;0.00;;;15.50;99.90;;;;;;21056907;28;20415;-69
2023/03/09 10:43:50;;;;;;;0.20;0.10;;;15.70;99.90;;;;;;21055830;28;20396;-69
2023/03/09 10:53:56;;;;;;;0.20;0.00;;;15.60;99.90;;;;;;21057501;28;20393;-69
2023/03/09 11:04:00;;;;;;;0.20;0.10;;;15.80;99.90;;;;;;21059238;28;20400;-68
2023/03/09 11:14:05;;;;;;;0.20;0.10;;;16.10;99.90;;;;;;21057320;28;21028;-65
2023/03/09 11:24:12;;;;;;;0.20;0.10;;;16.70;99.90;;;;;;21056382;28;20408;-69
2023/03/09 11:34:27;;;;;;;0.20;0.10;;;16.80;99.90;;;;;;21056068;28;20894;-69
2023/03/09 11:44:35;;;;;;;0.20;0.10;;;17.00;99.90;;;;;;21039470;28;20388;-69
2023/03/09 11:54:45;;;;;;;0.20;0.10;;;18.10;99.90;;;;;;21069544;28;20401;-68
2023/03/09 12:04:51;;;;;;;0.20;0.00;;;19.00;99.90;;;;;;21070872;28;20408;-66
2023/03/09 12:15:00;;;;;;;0.20;0.00;;;20.00;99.90;;;;;;21069462;28;20514;-69
2023/03/09 12:25:07;;;;;;;0.20;0.00;;;20.10;99.90;;;;;;21069490;28;20743;-70
2023/03/09 12:35:40;;;;;;;0.20;0.10;;;20.50;99.90;;;;;;21068243;28;20759;-70
2023/03/09 12:45:47;;;;;;;0.20;0.00;;;21.60;99.90;;;;;;21032078;28;20392;-71
2023/03/09 12:55:53;;;;;;;0.20;0.10;;;21.70;99.90;;;;;;21067515;28;20408;-71
2023/03/09 13:05:59;;;;;;;0.20;0.00;;;20.90;99.90;;;;;;21067576;28;20396;-72
2023/03/09 13:16:38;;;;;;;0.20;0.10;;;20.70;99.90;;;;;;21058931;28;20412;-71
2023/03/09 13:26:44;;;;;;;0.20;0.00;;;21.40;99.90;;;;;;21059954;28;20882;-70
2023/03/09 13:36:49;;;;;;;0.20;0.00;;;22.40;99.90;;;;;;21059070;28;20438;-71
2023/03/09 13:46:57;;;;;;;0.20;0.00;;;21.80;99.90;;;;;;21059054;28;20393;-71
2023/03/09 13:57:13;;;;;;;0.20;0.00;;;22.00;99.90;;;;;;21065990;28;20456;-71
2023/03/09 14:07:22;;;;;;;0.20;0.00;;;23.00;99.90;;;;;;21132165;28;20383;-71
2023/03/09 14:17:27;;;;;;;0.20;0.00;;;24.00;99.90;;;;;;21141109;28;20465;-70
2023/03/09 14:27:34;;;;;;;0.20;0.00;;;25.30;99.90;;;;;;21141934;28;20398;-71
2023/03/09 14:37:38;;;;;;;0.20;0.00;;;27.20;99.90;;;;;;21142483;28;20410;-72
2023/03/09 14:47:47;;;;;;;0.20;0.00;;;25.30;99.90;;;;;;21113982;28;20397;-71
2023/03/09 14:57:50;;;;;;;0.20;0.07;;;23.30;99.90;;;;;;21091870;28;20416;-72
2023/03/09 15:07:56;;;;;;;0.20;0.10;;;20.30;99.90;;;;;;21096658;28;20799;-69
2023/03/09 15:18:00;;;;;;;0.20;0.10;;;18.60;99.90;;;;;;21136003;28;20410;-71
2023/03/09 15:28:05;;;;;;;0.20;0.10;;;17.20;99.90;;;;;;21140927;28;20396;-71
2023/03/09 15:38:09;;;;;;;0.20;0.10;;;17.90;99.90;;;;;;21069515;28;20466;-71
2023/03/09 15:48:15;;;;;;;0.20;0.10;;;17.50;99.90;;;;;;21112553;28;20907;-69
2023/03/09 15:58:18;;;;;;;0.20;0.10;;;17.10;99.90;;;;;;21151897;28;20444;-69
2023/03/09 16:08:24;;;;;;;0.20;0.00;;;20.50;99.90;;;;;;21149365;28;20805;-69
2023/03/09 16:18:28;;;;;;;0.20;0.00;;;22.10;99.90;;;;;;21131463;28;20437;-70
2023/03/09 16:28:33;;;;;;;0.20;0.10;;;21.40;99.90;;;;;;21136494;28;20412;-70
2023/03/09 16:38:37;;;;;;;0.20;0.10;;;20.30;99.90;;;;;;21115457;28;20835;-70
2023/03/09 16:48:42;;;;;;;0.20;0.10;;;20.20;99.90;;;;;;21086835;28;20396;-70
2023/03/09 16:58:46;;;;;;;0.20;0.00;;;19.90;99.90;;;;;;21062282;28;20473;-70
2023/03/09 17:08:53;;;;;;;0.20;0.00;;;19.50;99.90;;;;;;21042969;28;20964;-70
2023/03/09 17:18:57;;;;;;;0.20;0.10;;;18.40;99.90;;;;;;21060882;28;20419;-71
2023/03/09 17:29:03;;;;;;;0.20;0.10;;;17.10;99.90;;;;;;21071485;28;20402;-70
2023/03/09 17:39:06;;;;;;;0.20;0.10;;;17.20;99.90;;;;;;21110341;28;20423;-68
2023/03/09 17:49:12;;;;;;;0.20;0.00;;;16.50;99.90;;;;;;21137458;28;20459;-70
2023/03/09 17:59:16;;;;;;;0.20;0.10;;;16.30;99.90;;;;;;21139968;28;20906;-69
2023/03/09 18:09:21;;;;;;;0.20;0.00;;;16.30;99.90;;;;;;21140261;28;20403;-72
2023/03/09 18:19:24;;;;;;;0.20;0.10;;;16.20;99.90;;;;;;21100747;28;20922;-69
2023/03/09 18:29:29;;;;;;;0.20;0.10;;;16.30;99.90;;;;;;21089977;28;20401;-69
2023/03/09 18:39:33;;;;;;;0.20;0.10;;;16.50;99.90;;;;;;21089915;28;20887;-70
2023/03/09 18:49:38;;;;;;;0.20;0.10;;;17.60;99.90;;;;;;21107721;28;20408;-71
2023/03/09 18:59:42;;;;;;;0.20;0.00;;;18.50;99.90;;;;;;21096237;28;20403;-71
2023/03/09 19:09:50;;;;;;;0.20;0.10;;;18.70;99.90;;;;;;21106371;28;20494;-70
2023/03/09 19:19:54;;;;;;;0.20;0.10;;;18.80;99.90;;;;;;21101136;28;20867;-70
2023/03/09 19:29:59;;;;;;;0.20;0.00;;;18.70;99.90;;;;;;21104290;27;20459;-71
2023/03/09 19:40:03;;;;;;;0.20;0.10;;;18.70;99.90;;;;;;21149589;28;20409;-71
2023/03/09 19:50:10;;;;;;;0.20;0.10;;;18.70;99.90;;;;;;21122283;27;20425;-70
2023/03/09 20:00:14;;;;;;;0.20;0.00;;;18.50;99.90;;;;;;21120221;28;20440;-71
2023/03/09 20:10:20;;;;;;;0.20;0.10;;;18.30;99.90;;;;;;21135230;28;20894;-73
2023/03/09 20:20:23;;;;;;;0.20;0.10;;;18.10;99.90;;;;;;21111729;28;20416;-70
2023/03/09 20:30:28;;;;;;;0.20;0.00;;;18.00;99.90;;;;;;21107598;28;20408;-70
2023/03/09 20:40:32;;;;;;;0.20;0.10;;;18.10;99.90;;;;;;21078401;28;20412;-71
2023/03/09 20:50:39;;;;;;;0.20;0.10;;;18.10;99.90;;;;;;21084260;28;20861;-69
2023/03/09 21:00:43;;;;;;;0.20;0.10;;;17.90;99.90;;;;;;21093700;28;20412;-69
2023/03/09 21:10:52;;;;;;;0.20;0.10;;;17.80;99.90;;;;;;21102647;28;20418;-70
2023/03/09 21:20:56;;;;;;;0.20;0.10;;;17.40;99.90;;;;;;21065727;28;20461;-72
2023/03/09 21:31:03;;;;;;;0.20;0.10;;;17.40;99.90;;;;;;21071903;27;20489;-69
2023/03/09 21:41:08;;;;;;;0.20;0.10;;;17.20;99.90;;;;;;21102608;28;20415;-69
2023/03/09 21:51:13;;;;;;;0.20;0.10;;;17.00;99.90;;;;;;21095845;27;20911;-71
2023/03/09 22:01:20;;;;;;;0.20;0.10;;;16.80;99.90;;;;;;21113886;27;20455;-71
2023/03/09 22:11:28;;;;;;;0.20;0.10;;;16.70;99.90;;;;;;21105186;28;20432;-71
2023/03/09 22:21:32;;;;;;;0.20;0.10;;;16.60;99.90;;;;;;21100977;28;20733;-70
2023/03/09 22:31:38;;;;;;;0.20;0.00;;;16.30;99.90;;;;;;21089903;28;20502;-70
2023/03/09 22:41:42;;;;;;;0.20;0.10;;;16.30;99.90;;;;;;21095798;28;20403;-69
2023/03/09 22:51:47;;;;;;;0.20;0.10;;;16.30;99.90;;;;;;21107298;28;20413;-69
2023/03/09 23:01:52;;;;;;;0.20;0.10;;;16.30;99.90;;;;;;21100130;28;20921;-69
2023/03/09 23:11:57;;;;;;;0.20;0.00;;;16.20;99.90;;;;;;21100647;28;20788;-69
2023/03/09 23:22:01;;;;;;;0.20;0.00;;;16.10;99.90;;;;;;21098093;28;20751;-69
2023/03/09 23:32:07;;;;;;;0.20;0.10;;;16.10;99.90;;;;;;21098380;28;20396;-69
2023/03/09 23:42:11;;;;;;;0.20;0.00;;;16.20;99.90;;;;;;21095999;28;20472;-70
2023/03/09 23:52:16;;;;;;;0.20;0.10;;;16.10;99.90;;;;;;21113378;28;20410;-70
